createdAt,value
2018-08-07T00:00:51.187Z,1005.06
2018-08-07T00:01:51.166Z,1005.08
2018-08-07T00:02:52.296Z,1005.07
2018-08-07T00:03:51.151Z,1005.04
2018-08-07T00:04:52.316Z,1005.02
2018-08-07T00:05:51.112Z,1005.04
2018-08-07T00:06:51.086Z,1005.04
2018-08-07T00:07:51.063Z,1005.01
2018-08-07T00:09:39.039Z,1004.97
2018-08-07T00:10:39.148Z,1004.97
2018-08-07T00:11:38.963Z,1005.00
2018-08-07T00:12:39.170Z,1004.97
2018-08-07T00:13:38.917Z,1004.95
2018-08-07T00:14:39.068Z,1004.98
2018-08-07T00:15:38.882Z,1004.95
2018-08-07T00:16:38.984Z,1004.92
2018-08-07T00:17:38.898Z,1004.96
2018-08-07T00:18:38.898Z,1004.96
2018-08-07T00:19:38.789Z,1004.94
2018-08-07T00:20:38.817Z,1004.93
2018-08-07T00:21:38.755Z,1004.99
2018-08-07T00:22:38.833Z,1004.91
2018-08-07T00:23:38.715Z,1004.92
2018-08-07T00:24:38.740Z,1004.88
2018-08-07T00:25:38.670Z,1004.89
2018-08-07T00:26:38.741Z,1004.86
2018-08-07T00:27:38.630Z,1004.87
2018-08-07T00:28:38.662Z,1004.85
2018-08-07T00:29:38.586Z,1004.87
2018-08-07T00:30:38.675Z,1004.86
2018-08-07T00:31:38.541Z,1004.88
2018-08-07T00:32:38.584Z,1004.85
2018-08-07T00:33:38.506Z,1004.86
2018-08-07T00:34:38.604Z,1004.84
2018-08-07T00:35:38.465Z,1004.80
2018-08-07T00:36:38.504Z,1004.80
2018-08-07T00:37:38.459Z,1004.80
2018-08-07T00:38:38.520Z,1004.79
2018-08-07T00:39:38.378Z,1004.77
2018-08-07T00:40:38.438Z,1004.78
2018-08-07T00:41:38.333Z,1004.78
2018-08-07T00:42:38.328Z,1004.78
2018-08-07T00:43:38.362Z,1004.78
2018-08-07T00:44:38.282Z,1004.73
2018-08-07T00:45:38.367Z,1004.74
2018-08-07T00:46:38.238Z,1004.69
2018-08-07T00:47:38.284Z,1004.74
2018-08-07T00:48:38.203Z,1004.73
2018-08-07T00:49:38.294Z,1004.67
2018-08-07T00:50:38.140Z,1004.71
2018-08-07T00:51:38.210Z,1004.66
2018-08-07T00:52:38.108Z,1004.67
2018-08-07T00:53:40.169Z,1004.65
2018-08-07T00:54:38.078Z,1004.61
2018-08-07T00:55:40.177Z,1004.61
2018-08-07T00:56:38.023Z,1004.60
2018-08-07T00:57:38.008Z,1004.62
2018-08-07T00:58:38.048Z,1004.61
2018-08-07T00:59:37.974Z,1004.59
2018-08-07T01:00:38.050Z,1004.61
2018-08-07T01:01:37.917Z,1004.58
2018-08-07T01:02:37.964Z,1004.56
2018-08-07T01:03:37.892Z,1004.56
2018-08-07T01:04:37.986Z,1004.60
2018-08-07T01:05:37.833Z,1004.56
2018-08-07T01:06:37.886Z,1004.56
2018-08-07T01:07:37.791Z,1004.53
2018-08-07T01:08:37.899Z,1004.52
2018-08-07T01:09:37.756Z,1004.56
2018-08-07T01:10:37.821Z,1004.53
2018-08-07T01:11:37.715Z,1004.50
2018-08-07T01:12:37.688Z,1004.48
2018-08-07T01:13:37.738Z,1004.46
2018-08-07T01:15:23.916Z,1004.48
2018-08-07T01:16:23.940Z,1004.49
2018-08-07T01:18:17.461Z,1004.46
2018-08-07T01:19:17.345Z,1004.44
2018-08-07T01:20:17.402Z,1004.41
2018-08-07T01:21:17.284Z,1004.40
2018-08-07T01:22:17.319Z,1004.42
2018-08-07T01:23:17.243Z,1004.41
2018-08-07T01:24:17.327Z,1004.37
2018-08-07T01:25:17.203Z,1004.41
2018-08-07T01:26:17.181Z,1004.40
2018-08-07T01:27:17.168Z,1004.39
2018-08-07T01:28:17.256Z,1004.39
2018-08-07T01:29:17.126Z,1004.34
2018-08-07T01:30:18.190Z,1004.34
2018-08-07T01:31:17.079Z,1004.34
2018-08-07T01:32:17.182Z,1004.36
2018-08-07T01:33:17.026Z,1004.34
2018-08-07T01:34:17.025Z,1004.37
2018-08-07T01:35:17.098Z,1004.35
2018-08-07T01:36:16.979Z,1004.32
2018-08-07T01:37:17.019Z,1004.33
2018-08-07T01:38:16.924Z,1004.30
2018-08-07T01:39:17.033Z,1004.32
2018-08-07T01:40:16.890Z,1004.34
2018-08-07T01:41:17.011Z,1004.29
2018-08-07T01:42:16.852Z,1004.33
2018-08-07T01:43:16.937Z,1004.28
2018-08-07T01:44:16.810Z,1004.26
2018-08-07T01:45:16.833Z,1004.24
2018-08-07T01:46:16.761Z,1004.26
2018-08-07T01:47:16.845Z,1004.24
2018-08-07T01:48:16.711Z,1004.20
2018-08-07T01:49:16.760Z,1004.22
2018-08-07T01:50:16.674Z,1004.22
2018-08-07T01:51:16.784Z,1004.23
2018-08-07T01:52:16.630Z,1004.26
2018-08-07T01:53:16.679Z,1004.20
2018-08-07T01:54:16.583Z,1004.21
2018-08-07T01:55:17.734Z,1004.17
2018-08-07T01:56:16.554Z,1004.23
2018-08-07T01:57:17.728Z,1004.21
2018-08-07T01:58:16.510Z,1004.24
2018-08-07T01:59:16.621Z,1004.19
2018-08-07T02:00:16.461Z,1004.17
2018-08-07T02:01:16.532Z,1004.16
2018-08-07T02:02:16.426Z,1004.11
2018-08-07T02:03:16.440Z,1004.15
2018-08-07T02:04:16.381Z,1004.12
2018-08-07T02:05:16.449Z,1004.16
2018-08-07T02:06:16.335Z,1004.17
2018-08-07T02:07:16.369Z,1004.16
2018-08-07T02:08:16.299Z,1004.15
2018-08-07T02:09:16.380Z,1004.17
2018-08-07T02:10:16.245Z,1004.13
2018-08-07T02:11:16.290Z,1004.15
2018-08-07T02:12:16.198Z,1004.12
2018-08-07T02:13:16.298Z,1004.16
2018-08-07T02:14:16.163Z,1004.13
2018-08-07T02:15:16.224Z,1004.12
2018-08-07T02:16:16.118Z,1004.15
2018-08-07T02:17:16.099Z,1004.11
2018-08-07T02:18:16.144Z,1004.10
2018-08-07T02:19:16.051Z,1004.10
2018-08-07T02:20:16.143Z,1004.09
2018-08-07T02:21:16.024Z,1004.11
2018-08-07T02:22:15.996Z,1004.10
2018-08-07T02:23:16.063Z,1004.12
2018-08-07T02:24:15.949Z,1004.14
2018-08-07T02:25:15.978Z,1004.16
2018-08-07T02:26:15.919Z,1004.12
2018-08-07T02:27:15.999Z,1004.11
2018-08-07T02:28:15.868Z,1004.12
2018-08-07T02:29:15.846Z,1004.14
2018-08-07T02:30:15.833Z,1004.17
2018-08-07T02:31:15.911Z,1004.18
2018-08-07T02:32:15.776Z,1004.17
2018-08-07T02:33:15.825Z,1004.12
2018-08-07T02:34:15.745Z,1004.09
2018-08-07T02:35:15.841Z,1004.10
2018-08-07T02:36:15.689Z,1004.12
2018-08-07T02:37:15.764Z,1004.11
2018-08-07T02:38:15.650Z,1004.07
2018-08-07T02:39:15.771Z,1004.03
2018-08-07T02:40:15.624Z,1004.04
2018-08-07T02:41:15.679Z,1004.01
2018-08-07T02:42:15.566Z,1004.00
2018-08-07T02:43:15.590Z,1003.99
2018-08-07T02:44:15.520Z,1004.00
2018-08-07T02:45:15.619Z,1003.96
2018-08-07T02:46:15.489Z,1003.93
2018-08-07T02:47:15.538Z,1003.95
2018-08-07T02:48:15.441Z,1003.97
2018-08-07T02:49:15.536Z,1003.98
2018-08-07T02:50:15.409Z,1003.95
2018-08-07T02:51:15.448Z,1003.93
2018-08-07T02:52:15.353Z,1003.93
2018-08-07T02:53:15.450Z,1003.91
2018-08-07T02:54:15.308Z,1003.91
2018-08-07T02:55:15.360Z,1003.90
2018-08-07T02:56:15.270Z,1003.89
2018-08-07T02:57:15.375Z,1003.90
2018-08-07T02:58:15.228Z,1003.91
2018-08-07T02:59:15.292Z,1003.89
2018-08-07T03:00:15.232Z,1003.90
2018-08-07T03:01:15.314Z,1003.88
2018-08-07T03:02:15.132Z,1003.92
2018-08-07T03:03:15.218Z,1003.89
2018-08-07T03:04:15.108Z,1003.94
2018-08-07T03:05:15.126Z,1003.89
2018-08-07T03:06:15.058Z,1003.88
2018-08-07T03:07:15.038Z,1003.91
2018-08-07T03:08:15.148Z,1003.90
2018-08-07T03:09:14.997Z,1003.90
2018-08-07T03:10:15.059Z,1003.88
2018-08-07T03:11:14.949Z,1003.88
2018-08-07T03:12:15.081Z,1003.87
2018-08-07T03:13:14.959Z,1003.86
2018-08-07T03:14:14.966Z,1003.85
2018-08-07T03:15:14.858Z,1003.86
2018-08-07T03:16:14.836Z,1003.87
2018-08-07T03:17:14.825Z,1003.84
2018-08-07T03:18:14.889Z,1003.83
2018-08-07T03:19:14.779Z,1003.81
2018-08-07T03:20:14.800Z,1003.83
2018-08-07T03:21:14.733Z,1003.81
2018-08-07T03:22:14.815Z,1003.86
2018-08-07T03:23:14.693Z,1003.84
2018-08-07T03:24:14.723Z,1003.86
2018-08-07T03:25:14.647Z,1003.84
2018-08-07T03:26:14.739Z,1003.86
2018-08-07T03:27:14.599Z,1003.89
2018-08-07T03:28:14.588Z,1003.87
2018-08-07T03:29:14.651Z,1003.82
2018-08-07T03:30:14.546Z,1003.81
2018-08-07T03:31:14.565Z,1003.82
2018-08-07T03:32:14.504Z,1003.81
2018-08-07T03:33:15.616Z,1003.80
2018-08-07T03:34:14.463Z,1003.79
2018-08-07T03:35:14.489Z,1003.77
2018-08-07T03:36:14.411Z,1003.82
2018-08-07T03:37:14.495Z,1003.80
2018-08-07T03:38:14.373Z,1003.82
2018-08-07T03:39:14.417Z,1003.81
2018-08-07T03:40:14.330Z,1003.76
2018-08-07T03:41:14.425Z,1003.83
2018-08-07T03:42:14.287Z,1003.79
2018-08-07T03:43:15.367Z,1003.77
2018-08-07T03:45:00.544Z,1003.84
2018-08-07T03:46:00.471Z,1003.81
2018-08-07T03:47:00.549Z,1003.82
2018-08-07T03:48:00.423Z,1003.83
2018-08-07T03:49:00.449Z,1003.84
2018-08-07T03:50:00.379Z,1003.88
2018-08-07T03:51:00.464Z,1003.90
2018-08-07T03:52:00.344Z,1003.90
2018-08-07T03:53:00.383Z,1003.92
2018-08-07T03:54:00.295Z,1003.93
2018-08-07T03:55:01.345Z,1003.96
2018-08-07T03:56:00.251Z,1003.99
2018-08-07T03:57:00.300Z,1003.97
2018-08-07T03:58:00.207Z,1003.95
2018-08-07T03:59:00.334Z,1003.93
2018-08-07T04:00:00.172Z,1003.98
2018-08-07T04:01:00.225Z,1003.93
2018-08-07T04:02:00.125Z,1003.96
2018-08-07T04:03:00.115Z,1003.94
2018-08-07T04:04:00.147Z,1004.02
2018-08-07T04:05:00.092Z,1003.99
2018-08-07T04:06:00.154Z,1004.01
2018-08-07T04:07:00.017Z,1004.01
2018-08-07T04:08:00.065Z,1004.04
2018-08-07T04:08:59.970Z,1004.01
2018-08-07T04:10:00.076Z,1003.99
2018-08-07T04:10:59.927Z,1004.00
2018-08-07T04:11:59.986Z,1003.97
2018-08-07T04:12:59.895Z,1003.96
2018-08-07T04:14:00.031Z,1003.97
2018-08-07T04:14:59.842Z,1003.97
2018-08-07T04:15:59.917Z,1003.93
2018-08-07T04:16:59.797Z,1003.95
2018-08-07T04:17:59.795Z,1003.96
2018-08-07T04:18:59.845Z,1003.97
2018-08-07T04:19:59.734Z,1003.95
2018-08-07T04:20:59.849Z,1004.01
2018-08-07T04:21:59.701Z,1003.98
2018-08-07T04:22:59.766Z,1004.00
2018-08-07T04:23:59.649Z,1003.99
2018-08-07T04:24:59.693Z,1003.95
2018-08-07T04:25:59.664Z,1004.01
2018-08-07T04:26:59.699Z,1003.98
2018-08-07T04:27:59.573Z,1003.98
2018-08-07T04:28:59.701Z,1003.97
2018-08-07T04:29:59.541Z,1004.00
2018-08-07T04:30:59.724Z,1003.95
2018-08-07T04:31:59.739Z,1003.95
2018-08-07T04:32:59.480Z,1003.96
2018-08-07T04:33:59.543Z,1003.93
2018-08-07T04:34:59.437Z,1003.96
2018-08-07T04:35:59.517Z,1003.99
2018-08-07T04:36:59.450Z,1004.06
2018-08-07T04:37:59.389Z,1004.03
2018-08-07T04:38:59.462Z,1004.00
2018-08-07T04:39:59.303Z,1003.99
2018-08-07T04:41:50.022Z,1004.07
2018-08-07T04:42:50.134Z,1004.00
2018-08-07T04:43:49.986Z,1004.04
2018-08-07T04:44:50.042Z,1003.99
2018-08-07T04:45:49.971Z,1004.00
2018-08-07T04:46:49.883Z,1003.99
2018-08-07T04:47:50.103Z,1003.97
2018-08-07T04:48:49.842Z,1003.99
2018-08-07T04:49:49.878Z,1004.01
2018-08-07T04:50:49.800Z,1004.00
2018-08-07T04:51:49.832Z,1003.98
2018-08-07T04:52:49.752Z,1003.99
2018-08-07T04:53:50.869Z,1003.95
2018-08-07T04:54:49.712Z,1003.98
2018-08-07T04:55:54.417Z,1003.94
2018-08-07T04:56:49.678Z,1003.98
2018-08-07T04:57:49.720Z,1004.01
2018-08-07T04:58:49.635Z,1003.96
2018-08-07T04:59:49.645Z,1003.99
2018-08-07T05:00:49.581Z,1003.97
2018-08-07T05:01:49.653Z,1004.00
2018-08-07T05:02:49.538Z,1004.01
2018-08-07T05:03:49.561Z,1003.99
2018-08-07T05:04:49.499Z,1003.98
2018-08-07T05:05:49.575Z,1004.01
2018-08-07T05:06:49.461Z,1003.99
2018-08-07T05:07:49.493Z,1004.01
2018-08-07T05:08:49.413Z,1004.00
2018-08-07T05:09:49.533Z,1003.99
2018-08-07T05:10:49.400Z,1004.01
2018-08-07T05:11:49.407Z,1004.03
2018-08-07T05:12:49.327Z,1004.02
2018-08-07T05:13:50.344Z,1004.02
2018-08-07T05:14:49.285Z,1003.99
2018-08-07T05:15:50.855Z,1004.02
2018-08-07T05:16:51.281Z,1004.01
2018-08-07T05:17:49.219Z,1004.04
2018-08-07T05:18:50.281Z,1004.05
2018-08-07T05:19:49.180Z,1004.03
2018-08-07T05:20:51.205Z,1004.03
2018-08-07T05:21:49.136Z,1004.04
2018-08-07T05:22:49.140Z,1004.05
2018-08-07T05:23:49.248Z,1004.06
2018-08-07T05:24:49.088Z,1004.03
2018-08-07T05:25:49.162Z,1004.05
2018-08-07T05:26:49.032Z,1004.03
2018-08-07T05:27:49.167Z,1004.05
2018-08-07T05:28:48.996Z,1004.02
2018-08-07T05:30:35.149Z,1004.04
2018-08-07T05:31:35.262Z,1004.02
2018-08-07T05:32:35.083Z,1004.05
2018-08-07T05:33:36.211Z,1004.05
2018-08-07T05:34:35.056Z,1004.04
2018-08-07T05:35:35.187Z,1004.05
2018-08-07T05:36:37.583Z,1004.09
2018-08-07T05:37:35.074Z,1004.10
2018-08-07T05:38:34.961Z,1004.07
2018-08-07T05:39:35.083Z,1004.10
2018-08-07T05:40:34.906Z,1004.11
2018-08-07T05:41:35.064Z,1004.08
2018-08-07T05:42:34.942Z,1004.07
2018-08-07T05:43:34.864Z,1004.06
2018-08-07T05:44:34.831Z,1004.07
2018-08-07T05:45:34.805Z,1004.09
2018-08-07T05:46:34.889Z,1004.09
2018-08-07T05:47:34.762Z,1004.09
2018-08-07T05:48:34.802Z,1004.11
2018-08-07T05:49:34.720Z,1004.09
2018-08-07T05:50:34.997Z,1004.08
2018-08-07T05:51:34.771Z,1004.08
2018-08-07T05:52:34.662Z,1004.09
2018-08-07T05:53:34.728Z,1004.13
2018-08-07T05:54:34.629Z,1004.10
2018-08-07T05:55:34.628Z,1004.11
2018-08-07T05:56:34.611Z,1004.08
2018-08-07T05:57:34.663Z,1004.08
2018-08-07T05:58:34.533Z,1004.07
2018-08-07T05:59:34.588Z,1004.09
2018-08-07T06:00:34.489Z,1004.11
2018-08-07T06:01:34.680Z,1004.09
2018-08-07T06:02:34.458Z,1004.12
2018-08-07T06:03:34.495Z,1004.11
2018-08-07T06:04:34.408Z,1004.13
2018-08-07T06:05:34.506Z,1004.17
2018-08-07T06:06:34.368Z,1004.14
2018-08-07T06:07:34.365Z,1004.15
2018-08-07T06:08:34.417Z,1004.12
2018-08-07T06:09:34.299Z,1004.15
2018-08-07T06:10:35.355Z,1004.15
2018-08-07T06:11:34.267Z,1004.17
2018-08-07T06:12:34.345Z,1004.19
2018-08-07T06:13:34.234Z,1004.23
2018-08-07T06:14:34.253Z,1004.15
2018-08-07T06:15:34.171Z,1004.22
2018-08-07T06:16:34.168Z,1004.22
2018-08-07T06:18:21.079Z,1004.21
2018-08-07T06:19:21.320Z,1004.21
2018-08-07T06:20:21.022Z,1004.22
2018-08-07T06:21:20.973Z,1004.20
2018-08-07T06:22:20.947Z,1004.22
2018-08-07T06:23:21.041Z,1004.23
2018-08-07T06:24:20.907Z,1004.26
2018-08-07T06:25:20.958Z,1004.25
2018-08-07T06:26:20.865Z,1004.27
2018-08-07T06:27:20.843Z,1004.26
2018-08-07T06:28:20.888Z,1004.28
2018-08-07T06:29:20.800Z,1004.25
2018-08-07T06:30:20.783Z,1004.25
2018-08-07T06:31:20.836Z,1004.29
2018-08-07T06:32:20.734Z,1004.26
2018-08-07T06:33:20.716Z,1004.26
2018-08-07T06:34:20.714Z,1004.26
2018-08-07T06:35:20.676Z,1004.23
2018-08-07T06:36:20.734Z,1004.25
2018-08-07T06:37:20.628Z,1004.22
2018-08-07T06:38:20.610Z,1004.25
2018-08-07T06:39:20.647Z,1004.22
2018-08-07T06:40:20.568Z,1004.24
2018-08-07T06:41:20.599Z,1004.27
2018-08-07T06:42:20.563Z,1004.25
2018-08-07T06:43:20.495Z,1004.27
2018-08-07T06:44:20.474Z,1004.27
2018-08-07T06:45:20.539Z,1004.26
2018-08-07T06:46:20.437Z,1004.29
2018-08-07T06:47:20.413Z,1004.22
2018-08-07T06:48:20.400Z,1004.28
2018-08-07T06:49:20.369Z,1004.24
2018-08-07T06:50:21.423Z,1004.23
2018-08-07T06:51:20.332Z,1004.23
2018-08-07T06:52:20.298Z,1004.23
2018-08-07T06:53:20.400Z,1004.21
2018-08-07T06:54:20.261Z,1004.18
2018-08-07T06:55:20.233Z,1004.17
2018-08-07T06:56:20.302Z,1004.16
2018-08-07T06:57:20.190Z,1004.14
2018-08-07T06:58:20.169Z,1004.17
2018-08-07T06:59:20.213Z,1004.20
2018-08-07T07:00:20.134Z,1004.19
2018-08-07T07:01:20.106Z,1004.17
2018-08-07T07:02:20.079Z,1004.16
2018-08-07T07:03:20.075Z,1004.12
2018-08-07T07:04:20.151Z,1004.11
2018-08-07T07:05:20.038Z,1004.12
2018-08-07T07:06:20.054Z,1004.06
2018-08-07T07:07:19.974Z,1004.09
2018-08-07T07:08:19.971Z,1004.07
2018-08-07T07:09:19.934Z,1004.10
2018-08-07T07:10:19.992Z,1004.07
2018-08-07T07:11:19.882Z,1004.10
2018-08-07T07:12:19.867Z,1004.06
2018-08-07T07:13:20.923Z,1004.10
2018-08-07T07:14:19.815Z,1004.13
2018-08-07T07:15:19.795Z,1004.12
2018-08-07T07:16:19.786Z,1004.11
2018-08-07T07:17:19.752Z,1004.09
2018-08-07T07:18:19.730Z,1004.06
2018-08-07T07:19:20.872Z,1004.06
2018-08-07T07:20:19.685Z,1004.04
2018-08-07T07:21:19.661Z,1004.02
2018-08-07T07:22:19.652Z,1004.05
2018-08-07T07:23:19.616Z,1004.06
2018-08-07T07:24:19.601Z,1004.01
2018-08-07T07:25:19.679Z,1004.04
2018-08-07T07:26:19.595Z,1004.01
2018-08-07T07:27:19.605Z,1004.05
2018-08-07T07:28:19.535Z,1004.03
2018-08-07T07:29:19.487Z,1004.03
2018-08-07T07:30:19.501Z,1004.07
2018-08-07T07:31:19.439Z,1004.05
2018-08-07T07:32:19.429Z,1004.05
2018-08-07T07:33:19.521Z,1004.05
2018-08-07T07:34:19.383Z,1004.03
2018-08-07T07:35:19.364Z,1004.08
2018-08-07T07:36:19.426Z,1004.07
2018-08-07T07:38:05.075Z,1004.04
2018-08-07T07:39:05.103Z,1004.03
2018-08-07T07:40:05.016Z,1004.05
2018-08-07T07:41:05.019Z,1004.06
2018-08-07T07:42:04.981Z,1004.02
2018-08-07T07:43:05.035Z,1004.01
2018-08-07T07:44:04.933Z,1004.01
2018-08-07T07:45:04.941Z,1003.97
2018-08-07T07:46:04.881Z,1003.94
2018-08-07T07:47:05.008Z,1003.94
2018-08-07T07:48:04.845Z,1003.95
2018-08-07T07:49:04.854Z,1003.93
2018-08-07T07:50:04.799Z,1003.91
2018-08-07T07:51:05.020Z,1003.88
2018-08-07T07:52:04.762Z,1003.87
2018-08-07T07:53:04.793Z,1003.90
2018-08-07T07:54:04.797Z,1003.87
2018-08-07T07:55:04.807Z,1003.88
2018-08-07T07:56:04.692Z,1003.83
2018-08-07T07:57:04.715Z,1003.82
2018-08-07T07:58:04.621Z,1003.82
2018-08-07T07:59:04.621Z,1003.82
2018-08-07T08:00:04.578Z,1003.82
2018-08-07T08:01:06.624Z,1003.81
2018-08-07T08:02:04.628Z,1003.77
2018-08-07T08:03:04.549Z,1003.81
2018-08-07T08:04:04.506Z,1003.79
2018-08-07T08:05:04.564Z,1003.80
2018-08-07T08:06:04.479Z,1003.78
2018-08-07T08:07:04.418Z,1003.81
2018-08-07T08:08:05.499Z,1003.78
2018-08-07T08:09:04.392Z,1003.79
2018-08-07T08:10:04.382Z,1003.78
2018-08-07T08:11:04.352Z,1003.79
2018-08-07T08:12:09.004Z,1003.79
2018-08-07T08:13:04.287Z,1003.84
2018-08-07T08:14:06.358Z,1003.82
2018-08-07T08:15:04.251Z,1003.85
2018-08-07T08:16:04.225Z,1003.81
2018-08-07T08:17:04.203Z,1003.82
2018-08-07T08:18:06.281Z,1003.81
2018-08-07T08:19:04.240Z,1003.80
2018-08-07T08:20:04.242Z,1003.79
2018-08-07T08:21:04.107Z,1003.83
2018-08-07T08:22:04.153Z,1003.81
2018-08-07T08:23:04.067Z,1003.81
2018-08-07T08:24:04.043Z,1003.77
2018-08-07T08:25:04.062Z,1003.73
2018-08-07T08:26:04.013Z,1003.76
2018-08-07T08:27:03.982Z,1003.76
2018-08-07T08:28:04.016Z,1003.78
2018-08-07T08:29:04.020Z,1003.77
2018-08-07T08:30:04.068Z,1003.75
2018-08-07T08:31:03.895Z,1003.77
2018-08-07T08:32:04.940Z,1003.75
2018-08-07T08:33:03.848Z,1003.75
2018-08-07T08:34:04.962Z,1003.74
2018-08-07T08:35:03.882Z,1003.75
2018-08-07T08:36:03.840Z,1003.74
2018-08-07T08:37:03.775Z,1003.74
2018-08-07T08:38:03.868Z,1003.72
2018-08-07T08:39:03.717Z,1003.70
2018-08-07T08:40:03.797Z,1003.74
2018-08-07T08:41:03.715Z,1003.74
2018-08-07T08:42:03.788Z,1003.72
2018-08-07T08:43:03.630Z,1003.71
2018-08-07T08:44:03.706Z,1003.69
2018-08-07T08:45:03.585Z,1003.69
2018-08-07T08:46:03.606Z,1003.66
2018-08-07T08:47:03.539Z,1003.68
2018-08-07T08:48:03.773Z,1003.69
2018-08-07T08:49:03.499Z,1003.68
2018-08-07T08:50:03.610Z,1003.70
2018-08-07T08:51:03.461Z,1003.69
2018-08-07T08:52:03.623Z,1003.66
2018-08-07T08:53:03.416Z,1003.63
2018-08-07T08:54:03.535Z,1003.64
2018-08-07T08:55:03.363Z,1003.61
2018-08-07T08:56:03.350Z,1003.58
2018-08-07T08:57:03.447Z,1003.59
2018-08-07T08:58:03.329Z,1003.59
2018-08-07T08:59:03.463Z,1003.55
2018-08-07T09:00:03.266Z,1003.57
2018-08-07T09:01:03.376Z,1003.54
2018-08-07T09:02:03.247Z,1003.50
2018-08-07T09:03:03.385Z,1003.47
2018-08-07T09:04:03.179Z,1003.46
2018-08-07T09:05:03.346Z,1003.44
2018-08-07T09:06:03.129Z,1003.43
2018-08-07T09:07:03.234Z,1003.41
2018-08-07T09:08:03.086Z,1003.39
2018-08-07T09:09:03.122Z,1003.40
2018-08-07T09:10:03.056Z,1003.41
2018-08-07T09:11:03.250Z,1003.41
2018-08-07T09:12:03.012Z,1003.43
2018-08-07T09:13:03.057Z,1003.43
2018-08-07T09:14:02.974Z,1003.41
2018-08-07T09:15:02.951Z,1003.44
2018-08-07T09:16:02.932Z,1003.37
2018-08-07T09:17:03.077Z,1003.40
2018-08-07T09:18:02.872Z,1003.40
2018-08-07T09:19:02.882Z,1003.35
2018-08-07T09:20:02.826Z,1003.32
2018-08-07T09:21:02.895Z,1003.35
2018-08-07T09:22:02.806Z,1003.33
2018-08-07T09:23:02.768Z,1003.32
2018-08-07T09:24:02.745Z,1003.29
2018-08-07T09:25:02.861Z,1003.31
2018-08-07T09:26:02.709Z,1003.29
2018-08-07T09:27:02.795Z,1003.27
2018-08-07T09:28:02.663Z,1003.26
2018-08-07T09:29:02.654Z,1003.25
2018-08-07T09:30:02.618Z,1003.27
2018-08-07T09:31:02.605Z,1003.28
2018-08-07T09:32:02.573Z,1003.23
2018-08-07T09:33:02.600Z,1003.19
2018-08-07T09:34:02.531Z,1003.22
2018-08-07T09:35:02.544Z,1003.23
2018-08-07T09:36:02.512Z,1003.17
2018-08-07T09:37:02.474Z,1003.18
2018-08-07T09:38:02.464Z,1003.16
2018-08-07T09:39:02.429Z,1003.16
2018-08-07T09:40:02.417Z,1003.11
2018-08-07T09:41:02.400Z,1003.11
2018-08-07T09:42:02.399Z,1003.07
2018-08-07T09:43:02.385Z,1003.06
2018-08-07T09:44:02.332Z,1003.08
2018-08-07T09:45:02.307Z,1003.05
2018-08-07T09:46:02.284Z,1003.03
2018-08-07T09:47:02.273Z,1003.03
2018-08-07T09:48:02.243Z,1002.98
2018-08-07T09:49:02.279Z,1002.97
2018-08-07T09:50:02.215Z,1002.94
2018-08-07T09:51:02.289Z,1002.97
2018-08-07T09:52:02.153Z,1003.01
2018-08-07T09:53:02.196Z,1002.99
2018-08-07T09:54:02.114Z,1002.95
2018-08-07T09:55:02.112Z,1002.97
2018-08-07T09:56:02.080Z,1002.97
2018-08-07T09:57:02.144Z,1002.94
2018-08-07T09:58:02.042Z,1002.92
2018-08-07T09:59:02.085Z,1002.90
2018-08-07T10:00:01.997Z,1002.94
2018-08-07T10:01:02.062Z,1002.91
2018-08-07T10:02:01.947Z,1002.92
2018-08-07T10:03:01.974Z,1002.86
2018-08-07T10:04:01.921Z,1002.91
2018-08-07T10:05:01.940Z,1002.91
2018-08-07T10:06:01.887Z,1002.91
2018-08-07T10:07:01.840Z,1002.92
2018-08-07T10:08:01.907Z,1002.88
2018-08-07T10:09:01.795Z,1002.87
2018-08-07T10:10:02.914Z,1002.86
2018-08-07T10:11:01.758Z,1002.83
2018-08-07T10:12:01.895Z,1002.78
2018-08-07T10:13:01.712Z,1002.81
2018-08-07T10:14:02.730Z,1002.79
2018-08-07T10:15:01.679Z,1002.82
2018-08-07T10:16:01.730Z,1002.76
2018-08-07T10:17:01.634Z,1002.78
2018-08-07T10:18:02.653Z,1002.78
2018-08-07T10:19:01.592Z,1002.76
2018-08-07T10:20:01.573Z,1002.72
2018-08-07T10:21:01.565Z,1002.73
2018-08-07T10:22:01.527Z,1002.74
2018-08-07T10:23:01.505Z,1002.71
2018-08-07T10:24:01.497Z,1002.74
2018-08-07T10:25:01.472Z,1002.70
2018-08-07T10:26:01.457Z,1002.70
2018-08-07T10:27:01.430Z,1002.67
2018-08-07T10:28:01.415Z,1002.64
2018-08-07T10:29:01.395Z,1002.66
2018-08-07T10:30:01.418Z,1002.63
2018-08-07T10:31:01.350Z,1002.65
2018-08-07T10:32:01.334Z,1002.63
2018-08-07T10:33:01.308Z,1002.66
2018-08-07T10:34:01.355Z,1002.61
2018-08-07T10:35:01.277Z,1002.59
2018-08-07T10:36:01.246Z,1002.59
2018-08-07T10:37:01.329Z,1002.59
2018-08-07T10:38:01.202Z,1002.64
2018-08-07T10:39:01.191Z,1002.61
2018-08-07T10:40:01.179Z,1002.55
2018-08-07T10:41:01.309Z,1002.57
2018-08-07T10:42:01.117Z,1002.57
2018-08-07T10:43:01.148Z,1002.56
2018-08-07T10:44:01.142Z,1002.54
2018-08-07T10:45:01.062Z,1002.56
2018-08-07T10:46:01.053Z,1002.53
2018-08-07T10:47:01.042Z,1002.51
2018-08-07T10:48:01.007Z,1002.53
2018-08-07T10:49:00.980Z,1002.53
2018-08-07T10:50:01.013Z,1002.54
2018-08-07T10:51:00.954Z,1002.52
2018-08-07T10:52:00.919Z,1002.49
2018-08-07T10:53:00.903Z,1002.51
2018-08-07T10:54:00.888Z,1002.50
2018-08-07T10:55:00.871Z,1002.50
2018-08-07T10:56:00.838Z,1002.50
2018-08-07T10:57:00.825Z,1002.44
2018-08-07T10:58:00.861Z,1002.45
2018-08-07T10:59:00.792Z,1002.45
2018-08-07T11:00:00.767Z,1002.40
2018-08-07T11:01:00.747Z,1002.41
2018-08-07T11:02:00.782Z,1002.48
2018-08-07T11:03:00.698Z,1002.46
2018-08-07T11:04:00.712Z,1002.45
2018-08-07T11:05:00.655Z,1002.46
2018-08-07T11:06:00.646Z,1002.47
2018-08-07T11:07:00.731Z,1002.40
2018-08-07T11:08:00.629Z,1002.39
2018-08-07T11:09:00.644Z,1002.40
2018-08-07T11:10:00.614Z,1002.45
2018-08-07T11:11:00.692Z,1002.40
2018-08-07T11:12:00.518Z,1002.47
2018-08-07T11:13:00.645Z,1002.41
2018-08-07T11:14:00.500Z,1002.41
2018-08-07T11:15:00.570Z,1002.38
2018-08-07T11:16:00.460Z,1002.32
2018-08-07T11:17:00.577Z,1002.37
2018-08-07T11:18:00.433Z,1002.32
2018-08-07T11:19:01.515Z,1002.30
2018-08-07T11:20:00.369Z,1002.29
2018-08-07T11:21:00.397Z,1002.27
2018-08-07T11:22:00.320Z,1002.24
2018-08-07T11:23:00.419Z,1002.18
2018-08-07T11:24:00.291Z,1002.21
2018-08-07T11:25:00.285Z,1002.19
2018-08-07T11:26:00.243Z,1002.20
2018-08-07T11:27:00.237Z,1002.18
2018-08-07T11:28:00.229Z,1002.20
2018-08-07T11:29:00.246Z,1002.18
2018-08-07T11:30:00.177Z,1002.18
2018-08-07T11:31:00.164Z,1002.20
2018-08-07T11:32:00.186Z,1002.14
2018-08-07T11:33:00.112Z,1002.15
2018-08-07T11:34:00.119Z,1002.09
2018-08-07T11:35:00.189Z,1002.07
2018-08-07T11:36:00.089Z,1002.12
2018-08-07T11:37:00.035Z,1002.13
2018-08-07T11:38:00.027Z,1002.16
2018-08-07T11:39:00.119Z,1002.07
2018-08-07T11:40:46.507Z,1002.05
2018-08-07T11:41:46.514Z,1002.04
2018-08-07T11:42:46.441Z,1002.02
2018-08-07T11:43:46.577Z,1001.98
2018-08-07T11:44:46.426Z,1001.98
2018-08-07T11:45:46.379Z,1001.93
2018-08-07T11:46:46.434Z,1001.96
2018-08-07T11:47:46.344Z,1001.93
2018-08-07T11:48:46.342Z,1001.89
2018-08-07T11:49:46.311Z,1001.90
2018-08-07T11:50:46.425Z,1001.89
2018-08-07T11:51:46.254Z,1001.91
2018-08-07T11:52:46.344Z,1001.86
2018-08-07T11:53:46.218Z,1001.87
2018-08-07T11:54:46.307Z,1001.85
2018-08-07T11:55:46.184Z,1001.83
2018-08-07T11:56:46.222Z,1001.79
2018-08-07T11:57:46.149Z,1001.73
2018-08-07T11:58:46.123Z,1001.74
2018-08-07T11:59:46.122Z,1001.74
2018-08-07T12:00:46.161Z,1001.73
2018-08-07T12:01:46.121Z,1001.68
2018-08-07T12:02:46.172Z,1001.67
2018-08-07T12:03:46.039Z,1001.70
2018-08-07T12:04:46.099Z,1001.71
2018-08-07T12:05:45.986Z,1001.75
2018-08-07T12:06:46.053Z,1001.71
2018-08-07T12:07:45.953Z,1001.72
2018-08-07T12:08:45.957Z,1001.73
2018-08-07T12:09:45.925Z,1001.75
2018-08-07T12:10:45.890Z,1001.78
2018-08-07T12:11:45.973Z,1001.80
2018-08-07T12:12:45.856Z,1001.76